Decoded Metar for ROAH (NAHA in JAPAN) (IATA:OKA) | Meteo·Mobile Aviation Weather
aviador You're here:

ROAH Decoded Metar

NAHA in JAPAN
Report Time2019-10-22 14:00:00
UTC Time2019-10-22 14:21:59
Flight Rules vfr VFR
Wind140° at 04 kt
W.Decomp.*RWY 18: 3.2 kt HW 2.4 kt LCW
Visibility9999 m
Phenomena:N/A
Clouds:Few 020 Hf
Expected CloudBase > 1,200 ft AGL from Temp-Dew spread
CeilingNone
Temp25°C (ISA +10)
Dew Point22°C (83% RH)
QNH1010 hPa
Density Alt1,637 ft
Elevation26 ft
Report Wrong Elevation
Raw Report
METAR ROAH 221400Z 14004KT 9999 FEW020 25/22 Q1010 RMK 1CU020 A2983=

Extra information for ROAH:More info

Metar Taf Metar & Taf Last 4 Metars F.Rules Stats Wind Profile Meteogram Temp Stats Airport Information Weather charts Add Link Nearby VenuesMetar ALERT Operation Metar Decoded Social comments